Time;durP1;ratioP1;P1;durP2;ratioP2;P2;SDS_P1;SDS_P2;PMS_P1;PMS_P2;Temp;Humidity;BMP_temperature;BMP_pressure;BME280_temperature;BME280_humidity;BME280_pressure;Samples;Min_cycle;Max_cycle;Signal;HPM_P1;HPM_P2
2022/09/14 00:01:11;;;;;;;5.25;1.42;;;;;;;15.43;100.00;100397.84;4955812;28;20047;-88
2022/09/14 00:03:52;;;;;;;7.13;1.50;;;;;;;15.40;100.00;100385.69;4972214;28;20050;-86
2022/09/14 00:06:19;;;;;;;9.73;1.80;;;;;;;15.42;100.00;100397.00;4972624;28;20043;-86
2022/09/14 00:08:49;;;;;;;8.38;1.52;;;;;;;15.28;100.00;100378.56;4955635;28;20058;-86
2022/09/14 00:11:16;;;;;;;7.15;1.90;;;;;;;15.45;100.00;100370.41;4972701;28;20658;-85
2022/09/14 00:13:44;;;;;;;7.25;1.65;;;;;;;15.51;100.00;100371.81;4955771;28;20051;-88
2022/09/14 00:16:16;;;;;;;6.88;1.60;;;;;;;15.53;100.00;100389.25;4964930;28;20489;-86
2022/09/14 00:18:44;;;;;;;8.10;2.63;;;;;;;15.38;100.00;100383.16;4963827;28;20539;-86
2022/09/14 00:21:11;;;;;;;8.60;1.58;;;;;;;15.41;100.00;100370.75;4950275;28;20058;-86
2022/09/14 00:23:40;;;;;;;4.32;1.40;;;;;;;15.44;100.00;100373.16;4969231;28;20416;-86
2022/09/14 00:26:11;;;;;;;4.90;1.33;;;;;;;15.66;100.00;100383.19;4972820;28;20496;-86
2022/09/14 00:28:44;;;;;;;6.57;1.38;;;;;;;15.64;100.00;100358.72;4954222;28;20102;-86
2022/09/14 00:31:11;;;;;;;11.15;2.58;;;;;;;15.47;100.00;100360.63;4953873;28;20090;-86
2022/09/14 00:33:41;;;;;;;6.13;1.77;;;;;;;15.62;100.00;100365.88;4956813;28;20054;-86
2022/09/14 00:36:13;;;;;;;4.88;1.33;;;;;;;15.60;100.00;100367.75;4975905;28;20050;-87
2022/09/14 00:38:40;;;;;;;6.90;1.83;;;;;;;15.63;100.00;100370.19;4953658;28;20051;-87
2022/09/14 00:41:11;;;;;;;5.78;1.30;;;;;;;15.92;100.00;100363.06;4959077;28;20050;-87
2022/09/14 00:44:04;;;;;;;4.90;1.30;;;;;;;15.90;100.00;100376.34;4946080;28;20433;-88
2022/09/14 00:46:36;;;;;;;7.25;1.65;;;;;;;15.85;100.00;100375.81;4948161;28;20110;-87
2022/09/14 00:49:09;;;;;;;7.55;1.60;;;;;;;15.76;100.00;100360.59;4956395;28;20054;-87
2022/09/14 00:51:38;;;;;;;;;;;;;;;16.00;100.00;100373.94;4976421;28;20089;-85
2022/09/14 00:54:06;;;;;;;5.82;1.73;;;;;;;15.77;100.00;100351.69;4958614;28;19950;-86
2022/09/14 00:56:33;;;;;;;5.38;1.30;;;;;;;15.64;100.00;100356.06;4958545;28;20047;-86
2022/09/14 00:59:07;;;;;;;5.45;1.38;;;;;;;15.68;100.00;100349.63;4956670;28;20486;-87
2022/09/14 01:01:34;;;;;;;5.18;1.45;;;;;;;15.38;100.00;100354.13;4956802;28;20086;-86
2022/09/14 01:04:01;;;;;;;5.60;1.92;;;;;;;15.52;100.00;100328.66;4958372;28;20065;-86
2022/09/14 01:06:49;;;;;;;4.97;1.38;;;;;;;15.61;100.00;100351.81;4952471;29;20445;-87
2022/09/14 01:10:02;;;;;;;4.47;1.40;;;;;;;15.69;100.00;100328.41;4949518;28;20098;-87
2022/09/14 01:12:53;;;;;;;3.95;1.30;;;;;;;15.84;100.00;100344.22;4959168;28;20050;-87
2022/09/14 01:15:30;;;;;;;5.28;1.55;;;;;;;15.72;100.00;100357.25;4958828;28;20047;-87
2022/09/14 01:18:20;;;;;;;4.30;1.40;;;;;;;15.71;100.00;100329.16;4965550;28;20192;-87
2022/09/14 01:20:58;;;;;;;6.75;1.33;;;;;;;15.77;100.00;100342.94;4962002;28;20486;-87
2022/09/14 01:23:46;;;;;;;5.90;1.50;;;;;;;15.83;100.00;100338.13;4953832;28;20409;-86
2022/09/14 01:26:24;;;;;;;4.03;1.20;;;;;;;15.88;100.00;100321.94;4970014;28;20051;-85
2022/09/14 01:29:18;;;;;;;5.50;1.40;;;;;;;15.77;100.00;100327.94;4973178;28;20051;-85
2022/09/14 01:31:59;;;;;;;6.75;1.30;;;;;;;15.66;100.00;100318.06;4975140;28;20102;-86
2022/09/14 01:34:39;;;;;;;4.22;1.30;;;;;;;15.66;100.00;100319.88;4952684;28;20046;-86
2022/09/14 01:37:15;;;;;;;5.32;1.40;;;;;;;15.68;100.00;100310.88;4957742;28;20046;-86
2022/09/14 01:39:47;;;;;;;6.25;1.50;;;;;;;15.83;100.00;100326.69;4952282;28;20186;-86
2022/09/14 01:42:17;;;;;;;5.38;1.40;;;;;;;15.80;100.00;100321.63;4955077;28;20105;-87
2022/09/14 01:44:48;;;;;;;11.98;1.63;;;;;;;15.90;100.00;100320.03;4975103;28;20054;-87
2022/09/14 01:47:38;;;;;;;6.53;1.27;;;;;;;15.86;100.00;100316.75;4955660;28;20630;-87
2022/09/14 01:50:17;;;;;;;7.55;1.50;;;;;;;15.61;100.00;100288.47;4951882;28;20107;-87
2022/09/14 01:52:53;;;;;;;5.00;1.33;;;;;;;15.64;100.00;100295.38;4955625;28;20055;-86
2022/09/14 01:55:30;;;;;;;7.70;1.33;;;;;;;15.57;100.00;100297.56;4966099;28;20106;-86
2022/09/14 01:58:09;;;;;;;5.95;1.23;;;;;;;15.48;100.00;100306.06;4955831;28;20042;-87
2022/09/14 02:00:41;;;;;;;5.03;1.10;;;;;;;15.44;100.00;100299.28;4972872;28;20077;-86
2022/09/14 02:03:32;;;;;;;3.80;1.10;;;;;;;15.59;100.00;100318.56;4958374;28;20528;-87
2022/09/14 02:06:11;;;;;;;3.35;1.10;;;;;;;15.32;100.00;100293.88;4957855;28;20397;-87
2022/09/14 02:08:38;;;;;;;5.03;1.10;;;;;;;15.29;100.00;100267.69;4969313;28;20054;-87
2022/09/14 02:11:05;;;;;;;2.72;0.93;;;;;;;15.55;100.00;100300.28;4963318;28;20861;-87
2022/09/14 02:13:32;;;;;;;3.55;1.10;;;;;;;15.40;100.00;100284.63;4949762;28;20101;-87
2022/09/14 02:15:59;;;;;;;3.33;1.17;;;;;;;15.35;100.00;100285.78;4957533;28;20109;-87
2022/09/14 02:18:25;;;;;;;4.72;1.00;;;;;;;15.42;100.00;100288.84;4963954;28;20734;-86
2022/09/14 02:21:00;;;;;;;2.88;1.00;;;;;;;15.52;100.00;100292.56;4957691;28;20058;-87
2022/09/14 02:23:27;;;;;;;3.65;1.15;;;;;;;15.36;100.00;100281.34;4952822;28;20825;-87
2022/09/14 02:25:54;;;;;;;2.78;1.02;;;;;;;15.18;100.00;100278.94;4957610;28;20082;-87
2022/09/14 02:28:21;;;;;;;3.75;1.30;;;;;;;15.35;100.00;100290.19;4951169;28;20082;-87
2022/09/14 02:31:26;;;;;;;4.78;1.10;;;;;;;15.04;100.00;100257.03;4957367;28;20098;-86
2022/09/14 02:34:25;;;;;;;4.82;1.20;;;;;;;15.20;100.00;100299.94;4949225;28;20047;-86
2022/09/14 02:37:14;;;;;;;3.53;1.08;;;;;;;15.17;100.00;100297.47;4935330;28;20545;-87
2022/09/14 02:39:44;;;;;;;2.17;0.95;;;;;;;15.07;100.00;100294.59;4952423;28;20102;-87
2022/09/14 02:42:36;;;;;;;2.70;1.00;;;;;;;14.92;100.00;100261.28;4956177;28;20055;-87
2022/09/14 02:45:47;;;;;;;1.30;0.80;;;;;;;15.09;100.00;100276.88;4917457;28;20721;-87
2022/09/14 02:48:29;;;;;;;2.90;0.90;;;;;;;15.05;100.00;100272.75;4930190;28;20055;-87
2022/09/14 02:51:00;;;;;;;2.58;1.02;;;;;;;15.16;100.00;100277.34;4954077;28;20117;-86
2022/09/14 02:53:37;;;;;;;1.50;0.80;;;;;;;15.17;100.00;100273.75;4970025;28;20481;-86
2022/09/14 02:56:07;;;;;;;1.80;0.80;;;;;;;15.07;100.00;100283.19;4955024;28;20977;-87
2022/09/14 02:58:37;;;;;;;4.75;1.30;;;;;;;15.05;100.00;100271.91;4956104;28;20054;-87
2022/09/14 03:01:06;;;;;;;2.83;1.00;;;;;;;14.97;100.00;100252.13;4972835;28;20461;-86
2022/09/14 03:03:33;;;;;;;4.13;1.52;;;;;;;14.99;100.00;100271.34;4957525;28;20117;-86
2022/09/14 03:06:01;;;;;;;2.38;1.10;;;;;;;14.93;100.00;100271.75;4973609;28;20531;-86
2022/09/14 03:08:28;;;;;;;1.70;0.90;;;;;;;14.96;100.00;100268.91;4950265;28;20055;-86
2022/09/14 03:10:55;;;;;;;2.70;0.85;;;;;;;14.92;100.00;100259.50;4957048;28;20101;-86
2022/09/14 03:13:22;;;;;;;2.63;0.93;;;;;;;14.78;100.00;100251.63;4957320;28;20492;-87
2022/09/14 03:15:49;;;;;;;3.13;1.05;;;;;;;14.88;100.00;100259.81;4955658;28;20054;-86
2022/09/14 03:18:16;;;;;;;4.07;1.38;;;;;;;14.64;100.00;100259.53;4952922;28;20499;-86
2022/09/14 03:20:43;;;;;;;3.45;1.15;;;;;;;14.40;100.00;100250.38;4956103;28;20051;-86
2022/09/14 03:23:11;;;;;;;4.22;1.20;;;;;;;14.64;100.00;100260.38;4973263;28;20078;-87
2022/09/14 03:25:40;;;;;;;6.30;1.63;;;;;;;14.20;100.00;100254.25;4946916;28;20581;-86
2022/09/14 03:28:08;;;;;;;2.55;1.08;;;;;;;13.98;100.00;100230.16;4950963;28;20043;-87
2022/09/14 03:30:35;;;;;;;6.03;1.65;;;;;;;14.01;100.00;100272.91;4956469;28;20050;-87
2022/09/14 03:33:02;;;;;;;7.55;1.88;;;;;;;13.81;100.00;100262.72;4973710;28;21842;-86
2022/09/14 03:35:30;;;;;;;4.70;1.38;;;;;;;14.32;100.00;100260.53;4952091;28;20050;-86
2022/09/14 03:37:58;;;;;;;4.88;1.70;;;;;;;14.35;100.00;100239.28;4972393;28;20053;-86
2022/09/14 03:40:25;;;;;;;6.78;1.60;;;;;;;14.35;100.00;100246.34;4955677;28;20098;-86
2022/09/14 03:42:53;;;;;;;4.75;1.25;;;;;;;14.55;100.00;100250.38;4949717;28;20059;-87
2022/09/14 03:45:21;;;;;;;4.53;1.35;;;;;;;14.54;100.00;100252.19;4953017;28;20094;-87
2022/09/14 03:47:48;;;;;;;4.68;1.33;;;;;;;14.41;100.00;100240.69;4949098;28;20497;-87
2022/09/14 03:50:17;;;;;;;4.20;1.30;;;;;;;14.32;100.00;100226.31;4955457;28;20050;-87
2022/09/14 03:52:43;;;;;;;5.40;1.60;;;;;;;14.49;100.00;100248.97;4955844;28;20098;-87
2022/09/14 03:55:10;;;;;;;7.88;1.73;;;;;;;14.32;100.00;100238.63;4956654;28;20844;-86
2022/09/14 03:57:37;;;;;;;5.72;1.67;;;;;;;14.20;100.00;100232.31;4950394;28;20059;-87
2022/09/14 04:00:06;;;;;;;5.43;1.30;;;;;;;14.35;100.00;100230.56;4948796;28;20058;-86
2022/09/14 04:02:32;;;;;;;4.30;1.23;;;;;;;14.48;100.00;100244.63;4972380;28;20460;-86
2022/09/14 04:04:59;;;;;;;3.47;1.17;;;;;;;14.53;100.00;100241.72;4971349;28;20050;-86
2022/09/14 04:07:26;;;;;;;6.50;1.30;;;;;;;14.52;100.00;100253.19;4972504;28;20473;-86
2022/09/14 04:09:53;;;;;;;3.70;1.15;;;;;;;14.46;100.00;100249.16;4954061;28;20046;-86
2022/09/14 04:12:19;;;;;;;3.50;1.10;;;;;;;14.48;100.00;100247.28;4972767;28;20098;-86
2022/09/14 04:14:46;;;;;;;4.97;1.10;;;;;;;14.23;100.00;100190.00;4954595;28;20118;-87
2022/09/14 04:17:12;;;;;;;6.63;1.15;;;;;;;14.53;100.00;100247.84;4969739;28;20047;-87
2022/09/14 04:19:41;;;;;;;2.53;1.00;;;;;;;14.49;100.00;100227.06;4955209;28;20487;-87
2022/09/14 04:22:07;;;;;;;2.38;1.00;;;;;;;14.50;100.00;100248.06;4953298;28;20059;-87
2022/09/14 04:24:34;;;;;;;2.55;1.00;;;;;;;14.38;100.00;100236.47;4953333;28;20101;-87
2022/09/14 04:27:01;;;;;;;3.60;1.00;;;;;;;14.47;100.00;100213.16;4951460;28;20047;-87
2022/09/14 04:29:29;;;;;;;2.58;0.90;;;;;;;14.50;100.00;100229.63;4950845;28;20055;-86
2022/09/14 04:31:56;;;;;;;4.85;1.20;;;;;;;14.61;100.00;100228.97;4972813;28;20113;-87
2022/09/14 04:34:23;;;;;;;5.10;1.10;;;;;;;14.51;100.00;100233.91;4955757;28;20469;-87
2022/09/14 04:36:50;;;;;;;2.60;1.00;;;;;;;14.20;100.00;100209.50;4955065;28;20109;-87
2022/09/14 04:39:17;;;;;;;2.72;0.98;;;;;;;14.19;100.00;100234.09;4951850;28;20046;-87
2022/09/14 04:41:44;;;;;;;5.15;1.23;;;;;;;14.30;100.00;100224.72;4955617;28;20055;-88
2022/09/14 04:44:11;;;;;;;4.35;1.20;;;;;;;14.02;100.00;100208.81;4955679;28;20109;-87
2022/09/14 04:46:41;;;;;;;4.70;1.30;;;;;;;13.95;100.00;100222.44;4956122;28;20439;-87
2022/09/14 04:49:12;;;;;;;4.05;1.42;;;;;;;13.73;100.00;100189.50;4953183;28;20050;-87
2022/09/14 04:51:39;;;;;;;3.65;1.30;;;;;;;13.75;100.00;100221.81;4952687;28;20058;-87
2022/09/14 04:54:06;;;;;;;8.55;1.60;;;;;;;13.57;100.00;100207.97;4951272;28;20658;-87
2022/09/14 04:56:35;;;;;;;6.90;1.80;;;;;;;13.68;100.00;100199.44;4948570;28;20070;-88
2022/09/14 04:59:04;;;;;;;6.30;1.77;;;;;;;13.59;100.00;100192.09;4950800;28;20134;-88
2022/09/14 05:01:38;;;;;;;5.00;1.50;;;;;;;13.78;100.00;100212.91;4951807;28;20612;-88
2022/09/14 05:04:06;;;;;;;4.18;1.25;;;;;;;13.89;100.00;100191.22;4964806;28;20054;-87
2022/09/14 05:06:35;;;;;;;4.07;1.35;;;;;;;13.96;100.00;100201.28;4950925;28;20055;-87
2022/09/14 05:09:03;;;;;;;3.80;1.30;;;;;;;14.21;100.00;100218.22;4969064;28;20125;-87
2022/09/14 05:11:32;;;;;;;3.70;1.08;;;;;;;14.02;100.00;100190.41;4954406;28;20051;-87
2022/09/14 05:14:00;;;;;;;3.70;1.17;;;;;;;14.11;100.00;100224.97;4966978;28;20047;-87
2022/09/14 05:16:29;;;;;;;4.03;1.40;;;;;;;14.09;100.00;100222.44;4954588;28;20054;-87
2022/09/14 05:19:00;;;;;;;5.93;1.80;;;;;;;13.95;100.00;100210.13;4968760;28;20098;-86
2022/09/14 05:21:28;;;;;;;5.82;1.40;;;;;;;13.82;100.00;100209.16;4972077;28;20097;-87
2022/09/14 05:23:57;;;;;;;3.50;1.33;;;;;;;14.02;100.00;100229.00;4950339;28;20043;-87
2022/09/14 05:26:26;;;;;;;3.78;1.23;;;;;;;14.12;100.00;100219.63;4973775;28;20118;-88
2022/09/14 05:28:55;;;;;;;3.40;1.10;;;;;;;14.04;100.00;100200.81;4969319;28;20069;-87
2022/09/14 05:31:23;;;;;;;2.45;1.10;;;;;;;14.06;100.00;100214.75;4953447;28;20109;-86
2022/09/14 05:33:50;;;;;;;3.88;1.20;;;;;;;14.03;100.00;100207.88;4950426;28;20051;-87
2022/09/14 05:36:17;;;;;;;2.15;0.98;;;;;;;14.05;100.00;100213.88;4954272;28;20054;-88
2022/09/14 05:38:45;;;;;;;4.60;1.00;;;;;;;14.16;100.00;100210.59;4949866;28;20051;-86
2022/09/14 05:41:13;;;;;;;2.60;1.10;;;;;;;14.08;100.00;100201.47;4965745;28;20108;-87
2022/09/14 05:43:40;;;;;;;3.03;1.10;;;;;;;14.11;100.00;100196.03;4957419;28;20470;-87
2022/09/14 05:46:11;;;;;;;1.85;0.90;;;;;;;14.04;100.00;100182.38;4950293;28;20068;-87
2022/09/14 05:48:39;;;;;;;3.03;1.10;;;;;;;14.20;100.00;100212.13;4969479;28;20039;-86
2022/09/14 05:51:20;;;;;;;2.28;1.00;;;;;;;14.35;100.00;100220.00;4951398;28;21792;-86
2022/09/14 05:53:52;;;;;;;2.55;0.98;;;;;;;14.37;100.00;100211.06;4957689;28;20062;-85
2022/09/14 05:56:20;;;;;;;1.15;0.82;;;;;;;14.36;100.00;100193.59;4958475;28;20094;-85
2022/09/14 05:58:47;;;;;;;2.25;0.90;;;;;;;14.52;100.00;100206.66;4975276;28;20374;-88
2022/09/14 06:01:16;;;;;;;6.32;1.00;;;;;;;14.46;100.00;100217.56;4969924;28;20058;-88
2022/09/14 06:03:43;;;;;;;1.63;0.90;;;;;;;14.64;100.00;100212.94;4955483;28;20077;-88
2022/09/14 06:06:13;;;;;;;1.95;0.80;;;;;;;14.56;100.00;100205.50;4947679;28;20085;-88
2022/09/14 06:08:40;;;;;;;2.45;0.93;;;;;;;14.61;100.00;100195.56;4956939;28;20047;-88
2022/09/14 06:11:15;;;;;;;2.05;0.85;;;;;;;14.36;100.00;100150.59;4959522;28;20389;-87
2022/09/14 06:13:43;;;;;;;2.92;1.05;;;;;;;14.44;100.00;100179.94;4959034;28;20051;-87
2022/09/14 06:16:14;;;;;;;1.85;0.82;;;;;;;14.69;100.00;100213.50;4976603;28;20055;-88
2022/09/14 06:18:43;;;;;;;2.45;0.95;;;;;;;14.55;100.00;100189.78;4956505;28;20047;-87
2022/09/14 06:21:14;;;;;;;4.07;0.90;;;;;;;14.82;100.00;100226.78;4954275;28;20047;-87
2022/09/14 06:23:41;;;;;;;1.55;0.80;;;;;;;14.82;100.00;100205.69;4954891;28;20378;-87
2022/09/14 06:26:09;;;;;;;2.25;0.90;;;;;;;13.99;100.00;100095.81;4952694;28;20109;-86
2022/09/14 06:28:36;;;;;;;1.10;0.80;;;;;;;14.37;100.00;100173.34;4974268;28;20046;-88
2022/09/14 06:31:03;;;;;;;1.35;0.85;;;;;;;14.47;100.00;100168.38;4957136;28;20051;-87
2022/09/14 06:33:30;;;;;;;2.58;0.93;;;;;;;14.57;100.00;100185.28;4976055;28;20054;-87
2022/09/14 06:36:00;;;;;;;1.48;0.70;;;;;;;14.75;100.00;100205.22;4958182;28;20054;-87
2022/09/14 06:38:28;;;;;;;1.70;0.90;;;;;;;14.53;100.00;100183.78;4974163;28;20821;-86
2022/09/14 06:41:00;;;;;;;2.35;0.93;;;;;;;14.48;100.00;100136.66;4958434;28;20042;-88
2022/09/14 06:43:30;;;;;;;2.72;0.95;;;;;;;14.99;100.00;100215.97;4958175;28;20054;-88
2022/09/14 06:46:03;;;;;;;2.78;0.90;;;;;;;14.90;100.00;100178.84;4958353;28;20078;-87
2022/09/14 06:48:31;;;;;;;;;;;;;;;15.11;100.00;100227.53;4958665;28;20059;-87
2022/09/14 06:50:57;;;;;;;1.88;1.00;;;;;;;14.95;100.00;100232.94;4958772;28;19922;-87
2022/09/14 06:53:24;;;;;;;1.63;0.80;;;;;;;14.55;100.00;100172.19;4958730;28;20437;-88
2022/09/14 06:55:51;;;;;;;3.30;1.00;;;;;;;14.84;100.00;100205.56;4959096;28;20620;-88
2022/09/14 06:58:18;;;;;;;2.05;0.80;;;;;;;14.61;100.00;100168.38;4953738;28;20458;-88
2022/09/14 07:00:45;;;;;;;2.70;1.13;;;;;;;14.74;100.00;100184.25;4959678;28;20055;-87
2022/09/14 07:03:11;;;;;;;3.83;0.93;;;;;;;14.54;100.00;100193.38;4977225;28;20259;-87
2022/09/14 07:05:38;;;;;;;3.22;0.93;;;;;;;14.87;100.00;100197.47;4959373;28;20106;-89
2022/09/14 07:08:05;;;;;;;2.83;1.08;;;;;;;14.55;100.00;100159.03;4959557;28;20047;-89
2022/09/14 07:10:37;;;;;;;3.97;1.00;;;;;;;14.38;100.00;100177.69;4961155;28;20481;-89
2022/09/14 07:13:04;;;;;;;1.08;0.80;;;;;;;14.93;100.00;100183.91;4954523;28;20078;-88
2022/09/14 07:15:32;;;;;;;1.70;0.85;;;;;;;15.55;100.00;100194.75;4977038;28;20062;-88
2022/09/14 07:17:59;;;;;;;1.08;0.75;;;;;;;15.90;100.00;100153.72;4963899;28;20047;-88
2022/09/14 07:20:25;;;;;;;1.65;0.80;;;;;;;15.45;100.00;100154.09;4955539;28;20051;-89
2022/09/14 07:22:52;;;;;;;3.83;1.00;;;;;;;15.12;100.00;100107.09;4954300;28;20414;-89
2022/09/14 07:25:19;;;;;;;2.60;0.90;;;;;;;15.57;100.00;100194.66;4957016;28;20106;-87
2022/09/14 07:27:46;;;;;;;3.03;0.90;;;;;;;15.20;100.00;100178.63;4970586;28;20070;-89
2022/09/14 07:30:13;;;;;;;2.05;0.88;;;;;;;15.41;100.00;100194.81;4953203;28;20350;-89
2022/09/14 07:32:39;;;;;;;2.65;1.00;;;;;;;15.07;100.00;100178.59;4960337;28;20050;-89
2022/09/14 07:35:07;;;;;;;3.10;0.93;;;;;;;15.34;100.00;100201.47;4960316;28;20077;-89
2022/09/14 07:37:34;;;;;;;2.42;0.82;;;;;;;15.14;100.00;100163.22;4957628;28;20054;-89
2022/09/14 07:40:01;;;;;;;1.58;0.80;;;;;;;15.50;100.00;100188.94;4959688;28;20171;-89
2022/09/14 07:42:28;;;;;;;2.25;0.85;;;;;;;15.65;100.00;100184.44;4951163;28;20047;-88
2022/09/14 07:44:55;;;;;;;2.35;1.00;;;;;;;15.48;100.00;100182.09;4959770;28;20051;-89
2022/09/14 07:47:22;;;;;;;2.85;1.00;;;;;;;15.82;100.00;100229.97;4976882;28;20502;-87
2022/09/14 07:49:48;;;;;;;1.42;0.82;;;;;;;15.65;100.00;100204.69;4974159;28;20055;-89
2022/09/14 07:52:15;;;;;;;4.13;1.02;;;;;;;15.59;100.00;100184.00;4960302;28;20105;-90
2022/09/14 07:54:42;;;;;;;1.65;0.95;;;;;;;15.55;100.00;100215.84;4959522;28;20421;-89
2022/09/14 07:57:09;;;;;;;2.20;0.98;;;;;;;15.23;100.00;100164.38;4972175;28;20050;-87
2022/09/14 07:59:36;;;;;;;1.98;0.80;;;;;;;15.55;100.00;100207.94;4964515;28;20497;-89
2022/09/14 08:02:07;;;;;;;1.50;0.80;;;;;;;15.40;100.00;100173.81;4966767;28;20051;-90
2022/09/14 08:04:35;;;;;;;2.20;0.95;;;;;;;15.45;100.00;100162.00;4958503;28;20080;-89
2022/09/14 08:07:02;;;;;;;3.75;1.10;;;;;;;15.42;100.00;100169.28;4958739;28;20046;-88
2022/09/14 08:09:29;;;;;;;2.72;1.00;;;;;;;15.49;100.00;100178.47;4958817;28;20479;-89
2022/09/14 08:11:56;;;;;;;1.70;0.80;;;;;;;15.19;100.00;100161.09;4976184;28;20054;-89
2022/09/14 08:14:24;;;;;;;1.52;0.70;;;;;;;15.60;100.00;100189.19;4972963;28;20051;-89
2022/09/14 08:16:51;;;;;;;1.08;0.80;;;;;;;15.90;100.00;100188.03;4974794;28;20512;-88
2022/09/14 08:19:19;;;;;;;1.00;0.60;;;;;;;16.15;100.00;100218.91;4948893;28;20102;-88
2022/09/14 08:21:46;;;;;;;2.03;0.80;;;;;;;16.21;100.00;100184.13;4975176;28;20525;-89
2022/09/14 08:24:19;;;;;;;1.45;0.80;;;;;;;15.93;100.00;100172.00;4950543;28;20730;-89
2022/09/14 08:26:47;;;;;;;3.45;0.82;;;;;;;15.83;100.00;100153.34;4958455;28;20054;-89
2022/09/14 08:29:16;;;;;;;3.83;0.90;;;;;;;15.97;100.00;100197.25;4957531;28;20486;-89
2022/09/14 08:31:44;;;;;;;6.45;0.90;;;;;;;16.01;100.00;100205.81;4956598;28;20401;-89
2022/09/14 08:34:12;;;;;;;2.20;0.90;;;;;;;15.55;100.00;100176.28;4958895;28;20058;-89
2022/09/14 08:36:41;;;;;;;1.92;0.90;;;;;;;15.99;100.00;100223.53;4954073;28;20073;-87
2022/09/14 08:39:09;;;;;;;5.28;1.10;;;;;;;16.16;100.00;100217.09;4968781;28;20678;-86
2022/09/14 08:41:42;;;;;;;1.45;0.80;;;;;;;16.20;100.00;100210.66;4970998;28;20058;-89
2022/09/14 08:44:31;;;;;;;1.48;0.80;;;;;;;16.45;100.00;100213.28;4949784;28;20055;-89
2022/09/14 08:47:04;;;;;;;3.47;0.98;;;;;;;16.35;100.00;100182.34;4958705;28;20105;-88
2022/09/14 08:49:44;;;;;;;3.65;1.33;;;;;;;16.43;100.00;100199.34;4948267;28;20055;-89
2022/09/14 08:52:12;;;;;;;2.22;0.80;;;;;;;16.24;100.00;100212.16;4951023;28;20051;-89
2022/09/14 08:54:39;;;;;;;3.45;0.93;;;;;;;15.89;100.00;100141.50;4980092;28;20043;-89
2022/09/14 08:57:16;;;;;;;3.47;0.98;;;;;;;16.82;100.00;100213.31;4960995;28;20437;-89
2022/09/14 08:59:58;;;;;;;3.17;1.00;;;;;;;17.16;100.00;100179.13;4944914;29;20486;-88
2022/09/14 09:02:55;;;;;;;3.65;1.17;;;;;;;16.70;100.00;100156.03;4960094;28;20066;-86
2022/09/14 09:05:35;;;;;;;4.05;1.02;;;;;;;17.22;100.00;100214.88;4947709;28;20436;-87
2022/09/14 09:08:20;;;;;;;4.70;1.27;;;;;;;17.39;100.00;100217.09;4974531;28;20042;-89
2022/09/14 09:10:51;;;;;;;7.13;1.50;;;;;;;17.63;100.00;100195.03;4962303;28;20047;-89
2022/09/14 09:13:22;;;;;;;4.47;1.00;;;;;;;17.01;100.00;100188.19;4963242;28;20485;-90
2022/09/14 09:15:54;;;;;;;3.38;1.02;;;;;;;17.56;100.00;100156.75;4962734;28;20054;-88
2022/09/14 09:19:08;;;;;;;7.07;1.02;;;;;;;17.71;100.00;100229.72;4951774;28;20050;-89
2022/09/14 09:21:42;;;;;;;4.60;1.00;;;;;;;17.80;100.00;100213.16;4927297;28;20047;-89
2022/09/14 09:24:09;;;;;;;4.25;1.00;;;;;;;17.54;100.00;100223.06;4962889;28;20051;-90
2022/09/14 09:26:37;;;;;;;4.72;1.10;;;;;;;17.29;100.00;100205.50;4962953;28;20467;-89
2022/09/14 09:29:08;;;;;;;3.47;0.98;;;;;;;17.07;100.00;100196.53;4956946;28;20449;-89
2022/09/14 09:31:39;;;;;;;4.97;0.90;;;;;;;16.84;100.00;100198.19;4962904;28;20054;-91
2022/09/14 09:34:06;;;;;;;5.28;1.33;;;;;;;16.00;100.00;100188.28;4981808;28;20047;-89
2022/09/14 09:36:40;;;;;;;5.40;1.30;;;;;;;15.97;100.00;100140.94;4963661;28;20472;-89
2022/09/14 09:39:07;;;;;;;3.20;1.10;;;;;;;16.36;100.00;100181.38;4963626;28;20046;-89
2022/09/14 09:41:58;;;;;;;1.85;0.80;;;;;;;15.94;100.00;100163.16;4963552;28;20061;-89
2022/09/14 09:44:25;;;;;;;4.10;0.80;;;;;;;16.01;100.00;100163.56;4944304;29;20051;-88
2022/09/14 09:47:00;;;;;;;3.67;1.08;;;;;;;16.33;100.00;100193.84;4944416;29;20074;-89
2022/09/14 09:49:37;;;;;;;2.95;0.80;;;;;;;16.63;100.00;100219.06;4961717;29;20051;-89
2022/09/14 09:52:16;;;;;;;6.35;1.30;;;;;;;16.44;100.00;100210.75;4976869;28;20054;-89
2022/09/14 09:54:50;;;;;;;3.47;1.00;;;;;;;16.09;100.00;100182.34;4964072;28;20042;-89
2022/09/14 09:57:28;;;;;;;3.22;0.90;;;;;;;16.25;100.00;100167.09;4963801;28;20059;-90
2022/09/14 10:00:24;;;;;;;5.65;1.10;;;;;;;16.45;100.00;100208.00;4980540;28;20057;-89
2022/09/14 10:02:53;;;;;;;7.90;1.42;;;;;;;16.65;100.00;100211.84;4962463;28;20110;-89
2022/09/14 10:05:24;;;;;;;5.47;1.00;;;;;;;16.67;100.00;100215.22;4963398;28;20061;-90
2022/09/14 10:07:59;;;;;;;7.30;1.20;;;;;;;16.94;100.00;100218.69;4962898;28;20110;-89
2022/09/14 10:10:38;;;;;;;3.28;0.82;;;;;;;16.62;100.00;100219.16;4963791;28;20059;-88
2022/09/14 10:13:20;;;;;;;3.05;0.80;;;;;;;16.61;100.00;100180.47;4963503;28;20051;-89
2022/09/14 10:15:48;;;;;;;4.90;0.80;;;;;;;16.49;100.00;100190.97;4981665;28;20194;-90
2022/09/14 10:18:21;;;;;;;3.83;0.98;;;;;;;16.26;100.00;100157.41;4964518;28;20054;-90
2022/09/14 10:20:51;;;;;;;3.58;1.00;;;;;;;16.49;100.00;100204.19;4964137;28;20057;-89
2022/09/14 10:23:17;;;;;;;4.15;1.10;;;;;;;16.63;100.00;100208.50;4963101;28;20054;-89
2022/09/14 10:25:49;;;;;;;3.67;1.02;;;;;;;16.67;100.00;100202.00;4964175;28;20085;-89
2022/09/14 10:28:20;;;;;;;3.17;0.90;;;;;;;16.38;100.00;100190.03;4976035;28;20068;-88
2022/09/14 10:30:59;;;;;;;3.42;0.93;;;;;;;16.96;100.00;100171.81;4961562;29;20047;-89
2022/09/14 10:33:27;;;;;;;2.83;0.80;;;;;;;17.37;100.00;100179.34;4944315;29;20047;-90
2022/09/14 10:36:19;;;;;;;2.17;0.85;;;;;;;17.73;100.00;100200.50;4943439;29;20114;-90
2022/09/14 10:39:11;;;;;;;3.35;0.90;;;;;;;17.46;100.00;100204.28;4951343;28;20050;-90
2022/09/14 10:41:44;;;;;;;5.18;1.30;;;;;;;17.24;100.00;100194.44;4963658;28;20046;-91
2022/09/14 10:44:27;;;;;;;6.88;1.30;;;;;;;17.07;93.48;100137.50;4982485;28;20422;-89
2022/09/14 10:46:57;;;;;;;3.65;1.02;;;;;;;17.94;94.87;100182.16;4963120;28;20481;-89
2022/09/14 10:49:43;;;;;;;2.85;0.90;;;;;;;18.24;88.91;100192.16;4963973;28;20030;-90
2022/09/14 10:52:13;;;;;;;6.05;1.05;;;;;;;18.24;81.04;100188.66;4963122;28;20046;-89
2022/09/14 10:54:45;;;;;;;4.82;1.02;;;;;;;17.58;78.75;100197.19;4981394;28;20613;-90
2022/09/14 10:57:30;;;;;;;5.90;1.20;;;;;;;17.79;81.00;100165.59;4962335;28;20035;-90
2022/09/14 11:00:11;;;;;;;6.53;1.05;;;;;;;17.81;75.16;100147.78;4948069;28;20464;-90
2022/09/14 11:02:53;;;;;;;6.25;1.30;;;;;;;18.36;76.27;100185.03;4963802;28;20061;-90
2022/09/14 11:05:26;;;;;;;3.73;1.03;;;;;;;18.12;74.27;100183.38;4964072;28;20047;-87
2022/09/14 11:08:32;;;;;;;8.13;1.43;;;;;;;17.95;73.91;100191.78;4963033;28;20062;-89
2022/09/14 11:11:10;;;;;;;5.22;1.35;;;;;;;17.63;80.74;100187.09;4921371;29;20150;-90
2022/09/14 11:13:56;;;;;;;3.65;1.10;;;;;;;17.60;82.94;100184.69;4989806;28;20477;-89
2022/09/14 11:17:01;;;;;;;7.63;1.23;;;;;;;17.58;82.30;100176.00;4981918;28;20047;-89
2022/09/14 11:19:51;;;;;;;5.72;1.35;;;;;;;17.38;83.96;100191.59;4954006;28;20050;-88
2022/09/14 11:22:24;;;;;;;7.75;1.20;;;;;;;17.43;87.77;100193.91;4963688;28;20061;-89
2022/09/14 11:25:15;;;;;;;7.45;1.83;;;;;;;17.15;87.89;100142.22;4963401;28;20050;-89
2022/09/14 11:27:50;;;;;;;5.63;1.50;;;;;;;17.22;87.01;100183.13;4963619;28;20051;-90
2022/09/14 11:30:20;;;;;;;6.35;1.50;;;;;;;17.21;89.55;100174.34;4963084;28;20054;-90
2022/09/14 11:33:25;;;;;;;6.95;1.23;;;;;;;17.53;93.29;100208.16;4965141;28;20070;-89
2022/09/14 11:36:06;;;;;;;8.32;1.35;;;;;;;17.01;90.43;100177.59;4961611;28;20065;-90
2022/09/14 11:38:45;;;;;;;4.40;1.10;;;;;;;17.12;97.16;100160.94;4964794;28;20493;-91
2022/09/14 11:41:35;;;;;;;5.35;1.58;;;;;;;16.92;100.00;100180.94;4979085;28;20061;-91
2022/09/14 11:44:18;;;;;;;6.18;1.23;;;;;;;17.22;100.00;100199.81;4979478;28;20529;-91